createdAt,value
2022-12-04T00:01:21.297Z,2.80
2022-12-04T00:03:48.563Z,2.80
2022-12-04T00:06:18.782Z,2.80
2022-12-04T00:08:47.174Z,2.80
2022-12-04T00:11:18.672Z,2.80
2022-12-04T00:13:45.880Z,2.80
2022-12-04T00:16:32.005Z,2.80
2022-12-04T00:18:59.011Z,2.80
2022-12-04T00:21:26.495Z,2.80
2022-12-04T00:23:54.485Z,2.70
2022-12-04T00:26:24.925Z,2.70
2022-12-04T00:28:53.152Z,2.80
2022-12-04T00:31:25.371Z,2.80
2022-12-04T00:33:53.452Z,2.80
2022-12-04T00:36:24.603Z,2.70
2022-12-04T00:38:51.883Z,2.70
2022-12-04T00:41:25.837Z,2.70
2022-12-04T00:43:53.165Z,2.70
2022-12-04T00:46:21.119Z,2.70
2022-12-04T00:48:48.415Z,2.70
2022-12-04T00:51:24.378Z,2.60
2022-12-04T00:53:53.241Z,2.60
2022-12-04T00:56:24.918Z,2.60
2022-12-04T00:58:54.414Z,2.60
2022-12-04T01:01:22.534Z,2.50
2022-12-04T01:03:50.115Z,2.50
2022-12-04T01:06:30.578Z,2.40
2022-12-04T01:08:59.276Z,2.40
2022-12-04T01:11:28.703Z,2.40
2022-12-04T01:13:57.006Z,2.30
2022-12-04T01:16:29.219Z,2.20
2022-12-04T01:18:56.775Z,2.20
2022-12-04T01:21:24.268Z,2.10
2022-12-04T01:23:51.502Z,2.10
2022-12-04T01:26:18.447Z,2.00
2022-12-04T01:28:45.379Z,2.00
2022-12-04T01:31:15.548Z,2.00
2022-12-04T01:33:43.253Z,2.00
2022-12-04T01:36:15.081Z,2.00
2022-12-04T01:38:42.793Z,2.00
2022-12-04T01:41:18.930Z,2.00
2022-12-04T01:43:45.844Z,2.10
2022-12-04T01:46:12.934Z,2.10
2022-12-04T01:48:52.407Z,2.10
2022-12-04T01:51:28.284Z,2.10
2022-12-04T01:53:59.587Z,2.10
2022-12-04T01:56:46.759Z,2.20
2022-12-04T01:59:17.669Z,2.10
2022-12-04T02:01:56.365Z,2.20
2022-12-04T02:04:23.473Z,2.20
2022-12-04T02:06:50.425Z,2.20
2022-12-04T02:09:23.052Z,2.20
2022-12-04T02:12:32.854Z,2.20
2022-12-04T02:15:36.662Z,2.10
2022-12-04T02:18:35.445Z,2.10
2022-12-04T02:21:14.742Z,2.10
2022-12-04T02:23:50.473Z,2.10
2022-12-04T02:27:03.956Z,2.10
2022-12-04T02:29:44.291Z,2.10
2022-12-04T02:32:39.749Z,2.10
2022-12-04T02:35:25.988Z,2.00
2022-12-04T02:38:06.732Z,2.00
2022-12-04T02:41:17.276Z,1.90
2022-12-04T02:43:59.093Z,1.90
2022-12-04T02:46:39.737Z,1.90
2022-12-04T02:49:20.083Z,1.90
2022-12-04T02:51:49.068Z,1.80
2022-12-04T02:54:35.240Z,1.80
2022-12-04T02:57:05.999Z,1.80
2022-12-04T02:59:42.241Z,1.70
2022-12-04T03:02:18.621Z,1.70
2022-12-04T03:04:46.878Z,1.70
2022-12-04T03:07:19.226Z,1.60
2022-12-04T03:09:52.638Z,1.60
2022-12-04T03:12:34.530Z,1.50
2022-12-04T03:15:10.696Z,1.50
2022-12-04T03:17:56.779Z,1.40
2022-12-04T03:20:24.545Z,1.40
2022-12-04T03:22:59.962Z,1.30
2022-12-04T03:25:36.088Z,1.20
2022-12-04T03:28:24.032Z,1.10
2022-12-04T03:30:59.856Z,1.10
2022-12-04T03:33:38.731Z,1.00
2022-12-04T03:36:28.460Z,1.00
2022-12-04T03:39:23.479Z,1.00
2022-12-04T03:42:15.961Z,0.90
2022-12-04T03:45:22.277Z,0.90
2022-12-04T03:48:04.462Z,0.80
2022-12-04T03:50:41.978Z,0.70
2022-12-04T03:53:23.102Z,0.70
2022-12-04T03:55:58.737Z,0.70
2022-12-04T03:58:31.264Z,0.60
2022-12-04T04:01:01.110Z,0.60
2022-12-04T04:03:38.541Z,0.50
2022-12-04T04:06:22.360Z,0.50
2022-12-04T04:08:56.034Z,0.50
2022-12-04T04:11:35.445Z,0.50
2022-12-04T04:14:32.997Z,0.50
2022-12-04T04:17:25.231Z,0.50
2022-12-04T04:20:23.006Z,0.50
2022-12-04T04:23:12.505Z,0.50
2022-12-04T04:25:42.422Z,0.50
2022-12-04T04:28:36.868Z,0.60
2022-12-04T04:31:47.512Z,0.60
2022-12-04T04:34:32.867Z,0.60
2022-12-04T04:37:42.558Z,0.60
2022-12-04T04:40:37.481Z,0.70
2022-12-04T04:43:22.397Z,0.70
2022-12-04T04:45:59.276Z,0.80
2022-12-04T04:48:41.131Z,0.90
2022-12-04T04:51:09.547Z,0.90
2022-12-04T04:53:48.108Z,0.90
2022-12-04T04:56:15.938Z,1.00
2022-12-04T04:58:43.615Z,0.90
2022-12-04T05:01:23.890Z,1.00
2022-12-04T05:03:50.967Z,1.00
2022-12-04T05:06:18.543Z,1.00
2022-12-04T05:08:46.323Z,1.00
2022-12-04T05:11:15.658Z,1.00
2022-12-04T05:13:43.186Z,1.00
2022-12-04T05:16:15.670Z,1.00
2022-12-04T05:19:06.176Z,1.10
2022-12-04T05:21:34.087Z,1.10
2022-12-04T05:24:03.174Z,1.10
2022-12-04T05:26:30.340Z,1.10
2022-12-04T05:28:57.257Z,1.10
2022-12-04T05:31:24.205Z,1.10
2022-12-04T05:33:51.146Z,1.10
2022-12-04T05:36:18.048Z,1.10
2022-12-04T05:38:45.026Z,1.10
2022-12-04T05:41:12.005Z,1.10
2022-12-04T05:43:38.919Z,1.20
2022-12-04T05:46:08.202Z,1.20
2022-12-04T05:48:35.964Z,1.20
2022-12-04T05:51:10.152Z,1.20
2022-12-04T05:53:38.158Z,1.30
2022-12-04T05:56:07.389Z,1.30
2022-12-04T05:58:36.745Z,1.30
2022-12-04T06:01:19.673Z,1.20
2022-12-04T06:03:46.898Z,1.30
2022-12-04T06:06:21.890Z,1.30
2022-12-04T06:08:56.811Z,1.30
2022-12-04T06:11:29.573Z,1.30
2022-12-04T06:13:57.437Z,1.30
2022-12-04T06:16:27.904Z,1.40
2022-12-04T06:18:58.369Z,1.40
2022-12-04T06:21:28.014Z,1.40
2022-12-04T06:23:56.076Z,1.50
2022-12-04T06:26:24.902Z,1.40
2022-12-04T06:28:57.506Z,1.50
2022-12-04T06:31:27.586Z,1.50
2022-12-04T06:33:56.225Z,1.50
2022-12-04T06:36:24.126Z,1.50
2022-12-04T06:38:52.601Z,1.50
2022-12-04T06:41:21.264Z,1.50
2022-12-04T06:43:48.958Z,1.50
2022-12-04T06:46:20.047Z,1.50
2022-12-04T06:48:47.666Z,1.50
2022-12-04T06:51:27.490Z,1.60
2022-12-04T06:53:54.769Z,1.60
2022-12-04T06:56:26.087Z,1.60
2022-12-04T06:58:56.168Z,1.60
2022-12-04T07:01:29.295Z,1.60
2022-12-04T07:03:57.421Z,1.60
2022-12-04T07:06:31.352Z,1.60
2022-12-04T07:09:16.469Z,1.60
2022-12-04T07:11:45.287Z,1.70
2022-12-04T07:14:13.801Z,1.70
2022-12-04T07:16:42.651Z,1.60
2022-12-04T07:19:12.865Z,1.70
2022-12-04T07:21:40.348Z,1.70
2022-12-04T07:24:07.556Z,1.70
2022-12-04T07:26:34.533Z,1.70
2022-12-04T07:29:01.524Z,1.80
2022-12-04T07:31:29.966Z,1.70
2022-12-04T07:33:58.148Z,1.80
2022-12-04T07:36:27.292Z,1.80
2022-12-04T07:38:56.491Z,1.80
2022-12-04T07:41:24.134Z,1.80
2022-12-04T07:43:51.196Z,1.80
2022-12-04T07:46:22.577Z,1.80
2022-12-04T07:48:49.561Z,1.80
2022-12-04T07:51:21.261Z,1.90
2022-12-04T07:53:49.896Z,1.90
2022-12-04T07:56:17.714Z,1.90
2022-12-04T07:58:45.426Z,1.90
2022-12-04T08:01:19.267Z,2.00
2022-12-04T08:03:49.527Z,2.00
2022-12-04T08:06:22.424Z,2.00
2022-12-04T08:08:50.172Z,2.10
2022-12-04T08:11:22.294Z,2.10
2022-12-04T08:13:55.177Z,2.10
2022-12-04T08:16:22.540Z,2.10
2022-12-04T08:18:49.500Z,2.10
2022-12-04T08:21:21.052Z,2.20
2022-12-04T08:23:50.637Z,2.20
2022-12-04T08:26:19.764Z,2.20
2022-12-04T08:28:46.793Z,2.30
2022-12-04T08:31:20.883Z,2.30
2022-12-04T08:33:50.848Z,2.40
2022-12-04T08:36:20.627Z,2.40
2022-12-04T08:38:48.730Z,2.40
2022-12-04T08:41:19.267Z,2.40
2022-12-04T08:43:46.182Z,2.40
2022-12-04T08:46:16.767Z,2.40
2022-12-04T08:48:45.069Z,2.40
2022-12-04T08:51:18.573Z,2.50
2022-12-04T08:53:45.898Z,2.50
2022-12-04T08:56:13.405Z,2.50
2022-12-04T08:58:40.696Z,2.50
2022-12-04T09:01:11.071Z,2.50
2022-12-04T09:03:38.153Z,2.50
2022-12-04T09:06:06.397Z,2.50
2022-12-04T09:08:34.952Z,2.50
2022-12-04T09:11:16.805Z,2.50
2022-12-04T09:13:44.754Z,2.50
2022-12-04T09:16:20.536Z,2.60
2022-12-04T09:18:47.946Z,2.60
2022-12-04T09:21:17.196Z,2.60
2022-12-04T09:23:44.841Z,2.60
2022-12-04T09:26:28.496Z,2.70
2022-12-04T09:28:56.697Z,2.80
2022-12-04T09:31:24.687Z,2.80
2022-12-04T09:33:51.910Z,2.80
2022-12-04T09:36:19.200Z,2.80
2022-12-04T09:38:49.245Z,2.80
2022-12-04T09:41:56.761Z,2.90
2022-12-04T09:44:40.927Z,2.90
2022-12-04T09:47:33.079Z,3.00
2022-12-04T09:50:21.350Z,3.00
2022-12-04T09:53:03.924Z,2.90
2022-12-04T09:55:38.963Z,2.90
2022-12-04T09:58:13.180Z,2.90
2022-12-04T10:00:44.836Z,3.00
2022-12-04T10:03:18.900Z,2.90
2022-12-04T10:06:14.512Z,2.90
2022-12-04T10:08:45.477Z,3.00
2022-12-04T10:11:42.300Z,3.00
2022-12-04T10:14:28.504Z,3.10
2022-12-04T10:17:32.630Z,3.10
2022-12-04T10:20:43.607Z,3.00
2022-12-04T10:23:19.341Z,3.00
2022-12-04T10:25:47.035Z,3.00
2022-12-04T10:28:39.007Z,3.00
2022-12-04T10:31:14.789Z,3.00
2022-12-04T10:34:12.825Z,3.00
2022-12-04T10:36:41.863Z,2.90
2022-12-04T10:39:35.415Z,3.00
2022-12-04T10:42:25.349Z,2.90
2022-12-04T10:44:53.236Z,2.90
2022-12-04T10:47:22.236Z,2.90
2022-12-04T10:49:49.838Z,2.90
2022-12-04T10:52:16.774Z,2.90
2022-12-04T10:54:51.517Z,2.90
2022-12-04T10:57:18.553Z,2.90
2022-12-04T10:59:54.060Z,2.90
2022-12-04T11:02:28.224Z,2.90
2022-12-04T11:05:26.785Z,3.00
2022-12-04T11:07:54.936Z,2.90
2022-12-04T11:10:41.847Z,2.90
2022-12-04T11:13:14.725Z,2.90
2022-12-04T11:15:49.800Z,2.90
2022-12-04T11:18:25.676Z,2.90
2022-12-04T11:21:06.245Z,2.90
2022-12-04T11:23:42.608Z,2.90
2022-12-04T11:26:10.302Z,2.90
2022-12-04T11:28:42.482Z,2.90
2022-12-04T11:31:17.117Z,2.90
2022-12-04T11:33:49.856Z,2.90
2022-12-04T11:36:34.782Z,3.00
2022-12-04T11:39:13.216Z,2.90
2022-12-04T11:41:40.475Z,2.90
2022-12-04T11:44:24.467Z,3.00
2022-12-04T11:46:57.836Z,3.00
2022-12-04T11:49:26.926Z,3.00
2022-12-04T11:52:27.587Z,3.00
2022-12-04T11:54:57.149Z,3.10
2022-12-04T11:57:54.148Z,3.10
2022-12-04T12:00:23.190Z,3.10
2022-12-04T12:03:17.863Z,3.10
2022-12-04T12:06:06.320Z,3.10
2022-12-04T12:08:54.599Z,3.00
2022-12-04T12:11:49.963Z,3.10
2022-12-04T12:14:42.007Z,3.10
2022-12-04T12:17:25.479Z,3.10
2022-12-04T12:20:15.513Z,3.00
2022-12-04T12:23:16.157Z,3.00
2022-12-04T12:26:15.540Z,3.00
2022-12-04T12:29:25.301Z,3.10
2022-12-04T12:32:13.755Z,3.10
2022-12-04T12:34:44.432Z,3.10
2022-12-04T12:37:41.882Z,3.10
2022-12-04T12:40:43.516Z,3.10
2022-12-04T12:43:24.873Z,3.10
2022-12-04T12:46:12.443Z,3.10
2022-12-04T12:49:11.635Z,3.10
2022-12-04T12:52:14.938Z,3.00
2022-12-04T12:54:51.802Z,3.10
2022-12-04T12:57:24.978Z,3.10
2022-12-04T13:00:13.177Z,3.10
2022-12-04T13:02:58.399Z,3.00
2022-12-04T13:05:34.203Z,3.00
2022-12-04T13:08:24.838Z,3.00
2022-12-04T13:11:13.578Z,3.10
2022-12-04T13:13:54.596Z,3.10
2022-12-04T13:16:39.600Z,3.00
2022-12-04T13:19:17.041Z,3.10
2022-12-04T13:21:54.339Z,3.10
2022-12-04T13:24:55.369Z,3.10
2022-12-04T13:28:14.174Z,3.10
2022-12-04T13:31:21.425Z,3.10
2022-12-04T13:34:07.013Z,3.10
2022-12-04T13:36:42.996Z,3.10
2022-12-04T13:39:35.426Z,3.00
2022-12-04T13:42:06.195Z,3.00
2022-12-04T13:44:35.479Z,2.90
2022-12-04T13:47:06.943Z,2.90
2022-12-04T13:49:42.102Z,3.00
2022-12-04T13:52:42.024Z,2.90
2022-12-04T13:55:23.329Z,3.00
2022-12-04T13:57:57.560Z,3.00
2022-12-04T14:00:31.497Z,3.00
2022-12-04T14:03:04.564Z,2.90
2022-12-04T14:05:42.227Z,2.90
2022-12-04T14:08:28.969Z,2.90
2022-12-04T14:11:05.850Z,2.90
2022-12-04T14:13:49.177Z,2.80
2022-12-04T14:16:22.639Z,2.90
2022-12-04T14:19:02.396Z,2.90
2022-12-04T14:21:47.488Z,2.90
2022-12-04T14:24:37.814Z,2.90
2022-12-04T14:27:42.846Z,2.90
2022-12-04T14:30:25.335Z,2.90
2022-12-04T14:34:09.526Z,2.90
2022-12-04T14:36:45.863Z,2.90
2022-12-04T14:39:46.891Z,2.90
2022-12-04T14:42:17.258Z,2.90
2022-12-04T14:44:55.150Z,2.80
2022-12-04T14:48:07.912Z,2.80
2022-12-04T14:50:50.401Z,2.80
2022-12-04T14:53:45.828Z,2.80
2022-12-04T14:56:59.365Z,2.70
2022-12-04T14:59:42.088Z,2.70
2022-12-04T15:02:16.032Z,2.70
2022-12-04T15:04:45.911Z,2.70
2022-12-04T15:07:30.180Z,2.70
2022-12-04T15:10:19.640Z,2.70
2022-12-04T15:12:54.523Z,2.60
2022-12-04T15:15:25.916Z,2.60
2022-12-04T15:18:14.938Z,2.60
2022-12-04T15:20:56.231Z,2.60
2022-12-04T15:23:29.023Z,2.60
2022-12-04T15:25:59.784Z,2.70
2022-12-04T15:28:35.971Z,2.70
2022-12-04T15:31:06.340Z,2.60
2022-12-04T15:33:37.245Z,2.60
2022-12-04T15:36:17.094Z,2.60
2022-12-04T15:38:44.369Z,2.60
2022-12-04T15:41:37.484Z,2.60
2022-12-04T15:44:29.439Z,2.60
2022-12-04T15:47:01.105Z,2.60
2022-12-04T15:49:33.157Z,2.60
2022-12-04T15:52:23.810Z,2.60
2022-12-04T15:54:58.093Z,2.60
2022-12-04T15:57:40.121Z,2.60
2022-12-04T16:00:25.130Z,2.60
2022-12-04T16:02:52.316Z,2.60
2022-12-04T16:05:22.216Z,2.60
2022-12-04T16:07:57.388Z,2.50
2022-12-04T16:10:32.022Z,2.50
2022-12-04T16:13:02.838Z,2.50
2022-12-04T16:15:47.957Z,2.50
2022-12-04T16:18:15.033Z,2.40
2022-12-04T16:20:42.054Z,2.40
2022-12-04T16:23:09.946Z,2.40
2022-12-04T16:25:37.112Z,2.40
2022-12-04T16:28:04.288Z,2.50
2022-12-04T16:30:34.148Z,2.50
2022-12-04T16:33:01.051Z,2.40
2022-12-04T16:35:30.464Z,2.40
2022-12-04T16:37:57.556Z,2.40
2022-12-04T16:40:24.496Z,2.40
2022-12-04T16:42:51.422Z,2.40
2022-12-04T16:45:31.189Z,2.40
2022-12-04T16:47:58.433Z,2.40
2022-12-04T16:50:27.131Z,2.40
2022-12-04T16:52:54.892Z,2.40
2022-12-04T16:55:28.228Z,2.40
2022-12-04T16:57:55.288Z,2.40
2022-12-04T17:00:22.227Z,2.40
2022-12-04T17:02:49.186Z,2.40
2022-12-04T17:05:23.365Z,2.40
2022-12-04T17:07:50.871Z,2.50
2022-12-04T17:10:23.583Z,2.50
2022-12-04T17:12:53.581Z,2.50
2022-12-04T17:15:21.553Z,2.40
2022-12-04T17:17:48.540Z,2.40
2022-12-04T17:20:22.851Z,2.50
2022-12-04T17:22:50.258Z,2.40
2022-12-04T17:25:18.331Z,2.40
2022-12-04T17:27:46.217Z,2.40
2022-12-04T17:30:14.419Z,2.40
2022-12-04T17:32:41.415Z,2.40
2022-12-04T17:35:11.876Z,2.40
2022-12-04T17:37:38.852Z,2.40
2022-12-04T17:40:07.608Z,2.40
2022-12-04T17:42:34.529Z,2.40
2022-12-04T17:45:01.488Z,2.40
2022-12-04T17:47:28.882Z,2.40
2022-12-04T17:49:55.808Z,2.40
2022-12-04T17:52:22.874Z,2.40
2022-12-04T17:54:52.646Z,2.40
2022-12-04T17:57:19.817Z,2.40
2022-12-04T17:59:46.755Z,2.40
2022-12-04T18:02:13.999Z,2.40
2022-12-04T18:04:41.676Z,2.40
2022-12-04T18:07:09.381Z,2.40
2022-12-04T18:09:37.170Z,2.40
2022-12-04T18:12:04.229Z,2.30
2022-12-04T18:14:32.517Z,2.30
2022-12-04T18:16:59.703Z,2.40
2022-12-04T18:19:29.121Z,2.40
2022-12-04T18:21:57.178Z,2.40
2022-12-04T18:24:26.290Z,2.40
2022-12-04T18:26:53.374Z,2.40
2022-12-04T18:29:25.033Z,2.40
2022-12-04T18:31:52.874Z,2.40
2022-12-04T18:34:20.992Z,2.40
2022-12-04T18:36:49.030Z,2.40
2022-12-04T18:39:21.000Z,2.40
2022-12-04T18:41:48.869Z,2.40
2022-12-04T18:44:17.402Z,2.40
2022-12-04T18:46:44.475Z,2.40
2022-12-04T18:49:12.126Z,2.40
2022-12-04T18:51:45.817Z,2.40
2022-12-04T18:54:24.122Z,2.40
2022-12-04T18:56:51.701Z,2.40
2022-12-04T18:59:27.162Z,2.40
2022-12-04T19:01:55.002Z,2.40
2022-12-04T19:04:23.947Z,2.40
2022-12-04T19:06:54.869Z,2.40
2022-12-04T19:09:47.220Z,2.40
2022-12-04T19:12:13.379Z,2.40
2022-12-04T19:14:40.543Z,2.40
2022-12-04T19:17:09.293Z,2.40
2022-12-04T19:19:36.397Z,2.40
2022-12-04T19:22:03.946Z,2.40
2022-12-04T19:24:31.034Z,2.50
2022-12-04T19:26:58.049Z,2.40
2022-12-04T19:29:24.944Z,2.40
2022-12-04T19:31:57.561Z,2.50
2022-12-04T19:34:26.019Z,2.50
2022-12-04T19:36:54.730Z,2.50
2022-12-04T19:39:21.655Z,2.50
2022-12-04T19:41:48.729Z,2.50
2022-12-04T19:44:47.303Z,2.40
2022-12-04T19:47:03.052Z,2.40
2022-12-04T19:49:30.045Z,2.40
2022-12-04T19:51:56.977Z,2.40
2022-12-04T19:54:24.649Z,2.50
2022-12-04T19:56:52.631Z,2.50
2022-12-04T19:59:20.621Z,2.50
2022-12-04T20:01:48.437Z,2.50
2022-12-04T20:04:15.710Z,2.50
2022-12-04T20:06:46.059Z,2.50
2022-12-04T20:09:18.196Z,2.50
2022-12-04T20:11:45.221Z,2.50
2022-12-04T20:14:12.375Z,2.50
2022-12-04T20:16:40.852Z,2.50
2022-12-04T20:19:13.574Z,2.50
2022-12-04T20:21:40.826Z,2.50
2022-12-04T20:24:08.442Z,2.50
2022-12-04T20:26:39.327Z,2.50
2022-12-04T20:29:10.059Z,2.50
2022-12-04T20:31:40.560Z,2.50
2022-12-04T20:34:13.193Z,2.50
2022-12-04T20:36:43.292Z,2.50
2022-12-04T20:39:12.626Z,2.50
2022-12-04T20:41:40.611Z,2.50
2022-12-04T20:44:12.772Z,2.50
2022-12-04T20:46:40.786Z,2.50
2022-12-04T20:49:15.832Z,2.60
2022-12-04T20:51:47.947Z,2.50
2022-12-04T20:54:18.622Z,2.60
2022-12-04T20:56:48.611Z,2.60
2022-12-04T20:59:18.307Z,2.60
2022-12-04T21:01:46.202Z,2.60
2022-12-04T21:04:13.399Z,2.60
2022-12-04T21:06:41.445Z,2.60
2022-12-04T21:09:14.148Z,2.60
2022-12-04T21:11:48.421Z,2.60
2022-12-04T21:14:46.224Z,2.60
2022-12-04T21:17:18.780Z,2.60
2022-12-04T21:19:48.195Z,2.60
2022-12-04T21:22:16.721Z,2.60
2022-12-04T21:24:43.873Z,2.60
2022-12-04T21:27:15.854Z,2.60
2022-12-04T21:29:48.213Z,2.60
2022-12-04T21:32:15.172Z,2.60
2022-12-04T21:34:42.336Z,2.60
2022-12-04T21:37:09.499Z,2.60
2022-12-04T21:39:37.003Z,2.60
2022-12-04T21:42:22.938Z,2.60
2022-12-04T21:44:49.824Z,2.60
2022-12-04T21:47:16.720Z,2.60
2022-12-04T21:49:43.648Z,2.60
2022-12-04T21:52:10.534Z,2.50
2022-12-04T21:54:37.454Z,2.60
2022-12-04T21:57:04.387Z,2.50
2022-12-04T21:59:31.327Z,2.50
2022-12-04T22:01:58.480Z,2.50
2022-12-04T22:04:25.541Z,2.60
2022-12-04T22:06:52.563Z,2.50
2022-12-04T22:09:19.656Z,2.50
2022-12-04T22:11:46.627Z,2.50
2022-12-04T22:14:13.904Z,2.50
2022-12-04T22:16:43.412Z,2.50
2022-12-04T22:19:12.247Z,2.50
2022-12-04T22:21:40.010Z,2.50
2022-12-04T22:24:07.974Z,2.50
2022-12-04T22:26:34.978Z,2.50
2022-12-04T22:29:11.232Z,2.50
2022-12-04T22:31:49.440Z,2.50
2022-12-04T22:34:16.383Z,2.50
2022-12-04T22:36:43.464Z,2.50
2022-12-04T22:39:11.159Z,2.60
2022-12-04T22:41:38.763Z,2.60
2022-12-04T22:44:06.612Z,2.60
2022-12-04T22:46:34.244Z,2.60
2022-12-04T22:49:01.309Z,2.60
2022-12-04T22:51:28.991Z,2.60
2022-12-04T22:53:57.937Z,2.60
2022-12-04T22:56:31.016Z,2.60
2022-12-04T22:58:59.725Z,2.60
2022-12-04T23:01:32.857Z,2.60
2022-12-04T23:04:03.581Z,2.60
2022-12-04T23:06:33.982Z,2.60
2022-12-04T23:09:11.874Z,2.60
2022-12-04T23:11:39.313Z,2.70
2022-12-04T23:14:08.654Z,2.70
2022-12-04T23:16:38.007Z,2.70
2022-12-04T23:19:07.438Z,2.70
2022-12-04T23:21:35.131Z,2.70
2022-12-04T23:24:02.634Z,2.70
2022-12-04T23:26:40.221Z,2.70
2022-12-04T23:29:23.265Z,2.70
2022-12-04T23:31:54.553Z,2.70
2022-12-04T23:34:21.552Z,2.80
2022-12-04T23:36:48.481Z,2.70
2022-12-04T23:39:15.404Z,2.80
2022-12-04T23:41:42.324Z,2.80
2022-12-04T23:44:09.214Z,2.70
2022-12-04T23:46:36.463Z,2.80
2022-12-04T23:49:03.589Z,2.80
2022-12-04T23:51:30.660Z,2.80
2022-12-04T23:53:57.602Z,2.80
2022-12-04T23:56:27.642Z,2.80
2022-12-04T23:58:57.285Z,2.80
